createdAt,value
2023-04-30T00:00:49.856Z,14.10
2023-04-30T00:03:50.912Z,13.90
2023-04-30T00:06:18.976Z,14.00
2023-04-30T00:08:47.053Z,14.20
2023-04-30T00:11:14.948Z,13.90
2023-04-30T00:13:43.568Z,15.00
2023-04-30T00:16:11.495Z,15.30
2023-04-30T00:18:39.441Z,15.60
2023-04-30T00:21:07.387Z,15.30
2023-04-30T00:23:35.497Z,16.80
2023-04-30T00:26:03.848Z,14.40
2023-04-30T00:28:31.809Z,12.70
2023-04-30T00:30:59.804Z,15.50
2023-04-30T00:33:27.788Z,14.50
2023-04-30T00:35:55.720Z,16.90
2023-04-30T00:38:24.167Z,15.00
2023-04-30T00:40:53.312Z,15.40
2023-04-30T00:43:21.293Z,17.20
2023-04-30T00:45:49.397Z,20.40
2023-04-30T00:48:18.387Z,20.90
2023-04-30T00:50:46.419Z,18.60
2023-04-30T00:53:14.481Z,18.90
2023-04-30T00:55:44.257Z,15.70
2023-04-30T00:58:12.835Z,16.20
2023-04-30T01:00:47.067Z,16.50
2023-04-30T01:03:15.269Z,16.70
2023-04-30T01:05:43.320Z,16.00
2023-04-30T01:08:11.844Z,15.40
2023-04-30T01:10:52.962Z,14.30
2023-04-30T01:13:39.871Z,13.50
2023-04-30T01:16:30.468Z,16.50
2023-04-30T01:19:37.568Z,13.20
2023-04-30T01:22:12.104Z,8.60
2023-04-30T01:25:14.517Z,8.70
2023-04-30T01:28:14.706Z,8.00
2023-04-30T01:30:46.586Z,7.80
2023-04-30T01:33:14.962Z,6.20
2023-04-30T01:35:43.598Z,5.80
2023-04-30T01:38:33.085Z,6.20
2023-04-30T01:41:14.110Z,5.30
2023-04-30T01:43:52.788Z,5.50
2023-04-30T01:46:30.851Z,6.90
2023-04-30T01:49:30.408Z,8.00
2023-04-30T01:52:17.898Z,9.80
2023-04-30T01:54:51.424Z,10.30
2023-04-30T01:57:47.769Z,10.60
2023-04-30T02:00:18.041Z,10.10
2023-04-30T02:02:46.312Z,10.90
2023-04-30T02:05:14.430Z,11.70
2023-04-30T02:07:45.582Z,12.30
2023-04-30T02:10:14.205Z,13.70
2023-04-30T02:12:42.683Z,13.20
2023-04-30T02:15:11.235Z,12.40
2023-04-30T02:17:42.039Z,13.80
2023-04-30T02:20:10.897Z,13.10
2023-04-30T02:22:39.004Z,12.00
2023-04-30T02:25:07.937Z,12.10
2023-04-30T02:27:36.080Z,12.50
2023-04-30T02:30:04.776Z,11.30
2023-04-30T02:32:32.785Z,11.70
2023-04-30T02:35:00.915Z,12.90
2023-04-30T02:37:29.000Z,10.60
2023-04-30T02:39:57.152Z,8.40
2023-04-30T02:42:26.600Z,6.60
2023-04-30T02:44:54.534Z,5.90
2023-04-30T02:47:22.593Z,5.10
2023-04-30T02:49:50.907Z,5.90
2023-04-30T02:52:18.837Z,5.20
2023-04-30T02:54:46.856Z,5.10
2023-04-30T02:57:14.772Z,4.60
2023-04-30T02:59:45.948Z,7.20
2023-04-30T03:02:14.253Z,6.30
2023-04-30T03:04:42.834Z,7.70
2023-04-30T03:07:11.538Z,8.20
2023-04-30T03:09:39.530Z,9.10
2023-04-30T03:12:07.614Z,10.00
2023-04-30T03:14:35.644Z,9.10
2023-04-30T03:17:03.620Z,8.90
2023-04-30T03:19:32.006Z,8.60
2023-04-30T03:22:00.030Z,8.60
2023-04-30T03:24:28.218Z,7.50
2023-04-30T03:26:56.535Z,8.80
2023-04-30T03:29:24.664Z,9.00
2023-04-30T03:31:52.828Z,7.50
2023-04-30T03:34:21.116Z,6.50
2023-04-30T03:36:49.188Z,6.90
2023-04-30T03:39:17.116Z,7.00
2023-04-30T03:41:45.139Z,7.20
2023-04-30T03:44:16.038Z,6.90
2023-04-30T03:46:44.758Z,8.20
2023-04-30T03:49:12.900Z,7.20
2023-04-30T03:51:42.139Z,9.00
2023-04-30T03:54:10.391Z,8.80
2023-04-30T03:56:38.780Z,8.20
2023-04-30T03:59:07.309Z,7.90
2023-04-30T04:01:36.202Z,9.30
2023-04-30T04:04:04.346Z,9.00
2023-04-30T04:06:32.794Z,9.70
2023-04-30T04:09:00.790Z,9.50
2023-04-30T04:11:29.250Z,9.90
2023-04-30T04:13:57.640Z,11.00
2023-04-30T04:16:26.115Z,9.40
2023-04-30T04:18:54.114Z,12.80
2023-04-30T04:21:22.123Z,12.20
2023-04-30T04:23:50.402Z,11.60
2023-04-30T04:26:21.605Z,11.20
2023-04-30T04:28:50.206Z,12.30
2023-04-30T04:31:18.470Z,11.20
2023-04-30T04:33:46.959Z,12.60
2023-04-30T04:36:16.336Z,11.50
2023-04-30T04:38:44.532Z,12.30
2023-04-30T04:41:12.981Z,9.40
2023-04-30T04:43:41.261Z,7.90
2023-04-30T04:46:10.651Z,9.20
2023-04-30T04:48:40.381Z,10.10
2023-04-30T04:51:10.258Z,9.00
2023-04-30T04:53:39.089Z,9.50
2023-04-30T04:56:07.384Z,8.00
2023-04-30T04:58:36.499Z,6.40
2023-04-30T05:01:06.069Z,6.80
2023-04-30T05:03:37.121Z,6.90
2023-04-30T05:06:05.855Z,7.00
2023-04-30T05:08:33.878Z,6.80
2023-04-30T05:11:01.916Z,7.40
2023-04-30T05:13:30.205Z,8.70
2023-04-30T05:15:58.265Z,8.30
2023-04-30T05:18:26.318Z,12.70
2023-04-30T05:20:54.244Z,13.00
2023-04-30T05:23:22.137Z,14.20
2023-04-30T05:25:53.599Z,13.70
2023-04-30T05:28:21.479Z,12.40
2023-04-30T05:30:49.405Z,13.80
2023-04-30T05:33:17.385Z,13.20
2023-04-30T05:35:45.549Z,19.20
2023-04-30T05:38:13.454Z,13.50
2023-04-30T05:40:41.377Z,14.70
2023-04-30T05:43:09.366Z,18.80
2023-04-30T05:45:37.534Z,15.60
2023-04-30T05:48:05.636Z,14.40
2023-04-30T05:50:34.283Z,14.70
2023-04-30T05:53:02.229Z,17.70
2023-04-30T05:55:31.074Z,15.40
2023-04-30T05:57:58.990Z,13.50
2023-04-30T06:00:26.991Z,17.00
2023-04-30T06:02:54.952Z,12.50
2023-04-30T06:05:22.954Z,13.20
2023-04-30T06:07:50.962Z,14.70
2023-04-30T06:10:18.969Z,14.30
2023-04-30T06:12:46.926Z,17.40
2023-04-30T06:15:14.816Z,14.80
2023-04-30T06:17:42.988Z,12.50
2023-04-30T06:20:11.558Z,13.80
2023-04-30T06:22:41.187Z,16.70
2023-04-30T06:25:09.624Z,13.70
2023-04-30T06:27:37.707Z,11.90
2023-04-30T06:30:06.860Z,16.20
2023-04-30T06:32:35.040Z,13.60
2023-04-30T06:35:03.066Z,13.80
2023-04-30T06:37:35.987Z,11.90
2023-04-30T06:40:07.766Z,10.40
2023-04-30T06:42:36.071Z,10.40
2023-04-30T06:45:06.648Z,9.80
2023-04-30T06:47:38.185Z,11.30
2023-04-30T06:50:06.595Z,13.20
2023-04-30T06:52:34.709Z,10.40
2023-04-30T06:55:02.588Z,15.00
2023-04-30T06:57:31.302Z,14.50
2023-04-30T06:59:59.270Z,10.10
2023-04-30T07:02:27.815Z,11.00
2023-04-30T07:04:56.017Z,10.90
2023-04-30T07:07:24.189Z,10.90
2023-04-30T07:09:53.659Z,9.90
2023-04-30T07:12:22.549Z,14.00
2023-04-30T07:14:50.732Z,10.10
2023-04-30T07:17:18.789Z,10.60
2023-04-30T07:19:47.329Z,12.00
2023-04-30T07:22:15.404Z,14.20
2023-04-30T07:24:43.337Z,9.80
2023-04-30T07:27:11.275Z,15.80
2023-04-30T07:29:39.248Z,11.00
2023-04-30T07:32:07.181Z,8.90
2023-04-30T07:34:35.106Z,8.00
2023-04-30T07:37:03.296Z,8.20
2023-04-30T07:39:31.345Z,8.10
2023-04-30T07:41:59.331Z,11.60
2023-04-30T07:44:27.303Z,7.50
2023-04-30T07:46:55.356Z,7.40
2023-04-30T07:49:23.457Z,7.20
2023-04-30T07:51:52.101Z,8.10
2023-04-30T07:54:23.694Z,7.80
2023-04-30T07:56:51.739Z,7.90
2023-04-30T07:59:21.396Z,5.90
2023-04-30T08:01:49.350Z,6.20
2023-04-30T08:04:17.436Z,8.80
2023-04-30T08:06:45.338Z,7.10
2023-04-30T08:09:13.316Z,5.30
2023-04-30T08:11:41.789Z,5.80
2023-04-30T08:14:09.788Z,10.60
2023-04-30T08:16:37.773Z,7.70
2023-04-30T08:19:05.874Z,5.80
2023-04-30T08:21:33.922Z,7.10
2023-04-30T08:24:02.260Z,7.80
2023-04-30T08:26:30.252Z,8.80
2023-04-30T08:28:58.157Z,7.90
2023-04-30T08:31:26.166Z,7.50
2023-04-30T08:33:54.199Z,9.20
2023-04-30T08:36:22.143Z,6.10
2023-04-30T08:38:50.018Z,8.00
2023-04-30T08:41:20.195Z,8.40
2023-04-30T08:43:51.221Z,5.80
2023-04-30T08:46:20.867Z,9.10
2023-04-30T08:48:48.973Z,8.20
2023-04-30T08:51:16.889Z,5.60
2023-04-30T08:53:45.880Z,5.50
2023-04-30T08:56:13.803Z,7.00
2023-04-30T08:58:41.864Z,6.20
2023-04-30T09:01:10.494Z,9.10
2023-04-30T09:03:38.646Z,6.10
2023-04-30T09:06:06.886Z,6.30
2023-04-30T09:08:51.243Z,13.90
2023-04-30T09:11:23.112Z,8.50
2023-04-30T09:13:53.295Z,9.00
2023-04-30T09:16:22.967Z,8.20
2023-04-30T09:18:51.628Z,7.80
2023-04-30T09:21:33.979Z,7.30
2023-04-30T09:24:04.730Z,10.30
2023-04-30T09:26:35.126Z,7.40
2023-04-30T09:29:08.205Z,7.80
2023-04-30T09:31:42.187Z,5.20
2023-04-30T09:34:10.900Z,4.40
2023-04-30T09:36:52.712Z,8.60
2023-04-30T09:39:21.174Z,8.10
2023-04-30T09:41:52.168Z,3.90
2023-04-30T09:44:30.703Z,4.10
2023-04-30T09:46:59.444Z,4.30
2023-04-30T09:49:27.909Z,7.30
2023-04-30T09:51:56.945Z,7.00
2023-04-30T09:54:30.088Z,5.00
2023-04-30T09:57:02.425Z,6.50
2023-04-30T09:59:33.091Z,5.90
2023-04-30T10:02:03.358Z,3.40
2023-04-30T10:04:34.707Z,4.00
2023-04-30T10:07:06.932Z,9.50
2023-04-30T10:09:59.469Z,3.70
2023-04-30T10:12:37.974Z,4.30
2023-04-30T10:15:18.223Z,7.70
2023-04-30T10:17:54.690Z,4.60
2023-04-30T10:20:26.411Z,7.60
2023-04-30T10:22:54.760Z,6.80
2023-04-30T10:25:23.608Z,4.50
2023-04-30T10:27:51.890Z,8.50
2023-04-30T10:30:22.644Z,4.50
2023-04-30T10:33:09.712Z,3.80
2023-04-30T10:35:53.548Z,8.20
2023-04-30T10:38:25.034Z,3.80
2023-04-30T10:40:58.247Z,3.30
2023-04-30T10:43:26.620Z,4.20
2023-04-30T10:45:54.589Z,3.70
2023-04-30T10:48:27.234Z,5.20
2023-04-30T10:50:57.388Z,7.60
2023-04-30T10:53:27.991Z,5.00
2023-04-30T10:56:00.914Z,7.00
2023-04-30T10:58:34.638Z,6.10
2023-04-30T11:01:02.622Z,4.00
2023-04-30T11:03:32.812Z,5.70
2023-04-30T11:06:04.025Z,6.60
2023-04-30T11:08:33.610Z,5.40
2023-04-30T11:11:05.476Z,4.70
2023-04-30T11:13:47.947Z,3.70
2023-04-30T11:16:16.775Z,4.30
2023-04-30T11:18:46.047Z,5.70
2023-04-30T11:21:14.261Z,4.90
2023-04-30T11:23:43.603Z,3.90
2023-04-30T11:26:11.816Z,6.80
2023-04-30T11:28:55.625Z,5.20
2023-04-30T11:31:33.829Z,3.10
2023-04-30T11:34:03.659Z,2.40
2023-04-30T11:36:33.918Z,4.40
2023-04-30T11:39:06.242Z,5.00
2023-04-30T11:41:41.271Z,4.20
2023-04-30T11:44:28.201Z,4.10
2023-04-30T11:46:56.299Z,3.50
2023-04-30T11:49:24.322Z,3.60
2023-04-30T11:51:53.205Z,4.20
2023-04-30T11:54:22.305Z,9.50
2023-04-30T11:56:50.868Z,2.90
2023-04-30T11:59:19.216Z,5.70
2023-04-30T12:01:47.165Z,4.00
2023-04-30T12:04:15.392Z,5.80
2023-04-30T12:06:43.751Z,5.60
2023-04-30T12:09:12.154Z,4.60
2023-04-30T12:11:40.110Z,6.20
2023-04-30T12:14:12.591Z,3.30
2023-04-30T12:16:46.141Z,3.30
2023-04-30T12:19:14.288Z,7.20
2023-04-30T12:21:51.974Z,4.30
2023-04-30T12:24:19.925Z,5.50
2023-04-30T12:26:48.211Z,8.50
2023-04-30T12:29:17.710Z,3.50
2023-04-30T12:31:49.243Z,7.20
2023-04-30T12:34:18.658Z,3.00
2023-04-30T12:36:46.592Z,3.90
2023-04-30T12:39:16.421Z,5.20
2023-04-30T12:41:49.831Z,3.60
2023-04-30T12:44:18.820Z,3.10
2023-04-30T12:46:49.206Z,3.40
2023-04-30T12:49:25.064Z,3.40
2023-04-30T12:51:59.297Z,5.60
2023-04-30T12:54:32.669Z,4.60
2023-04-30T12:57:12.037Z,6.10
2023-04-30T12:59:57.228Z,5.90
2023-04-30T13:02:33.184Z,3.30
2023-04-30T13:05:01.206Z,3.00
2023-04-30T13:07:38.300Z,5.30
2023-04-30T13:10:07.368Z,4.20
2023-04-30T13:12:35.380Z,6.50
2023-04-30T13:15:03.987Z,4.10
2023-04-30T13:17:31.945Z,6.70
2023-04-30T13:19:59.935Z,5.90
2023-04-30T13:22:29.752Z,3.80
2023-04-30T13:24:57.884Z,5.40
2023-04-30T13:27:25.982Z,6.00
2023-04-30T13:29:54.243Z,4.00
2023-04-30T13:32:22.429Z,4.70
2023-04-30T13:34:52.405Z,3.00
2023-04-30T13:37:21.094Z,6.10
2023-04-30T13:39:49.181Z,7.10
2023-04-30T13:42:17.115Z,5.70
2023-04-30T13:44:45.670Z,7.00
2023-04-30T13:47:13.580Z,5.10
2023-04-30T13:49:41.848Z,4.20
2023-04-30T13:52:09.811Z,6.20
2023-04-30T13:54:38.602Z,2.70
2023-04-30T13:57:07.607Z,6.30
2023-04-30T14:06:25.898Z,5.20
2023-04-30T14:08:53.896Z,4.00
2023-04-30T14:11:22.053Z,6.40
2023-04-30T14:13:50.012Z,4.70
2023-04-30T14:16:19.639Z,7.10
2023-04-30T14:18:47.609Z,7.10
2023-04-30T14:21:15.603Z,3.30
2023-04-30T14:23:46.572Z,6.10
2023-04-30T14:26:15.134Z,2.60
2023-04-30T14:28:43.070Z,4.30
2023-04-30T14:31:11.084Z,4.70
2023-04-30T14:33:39.281Z,5.30
2023-04-30T14:36:07.946Z,6.50
2023-04-30T14:38:35.882Z,4.90
2023-04-30T14:41:03.948Z,5.20
2023-04-30T14:43:31.879Z,7.00
2023-04-30T14:45:59.935Z,3.30
2023-04-30T14:48:27.893Z,2.60
2023-04-30T14:50:55.953Z,4.60
2023-04-30T14:53:23.843Z,2.30
2023-04-30T14:55:52.169Z,4.30
2023-04-30T14:58:21.045Z,3.80
2023-04-30T15:00:49.098Z,5.30
2023-04-30T15:03:17.213Z,4.90
2023-04-30T15:05:45.273Z,5.20
2023-04-30T15:08:13.241Z,5.30
2023-04-30T15:10:41.176Z,4.90
2023-04-30T15:13:09.933Z,3.90
2023-04-30T15:15:38.031Z,5.50
2023-04-30T15:18:07.308Z,4.70
2023-04-30T15:20:35.390Z,26.10
2023-04-30T15:23:03.946Z,9.10
2023-04-30T15:25:32.426Z,5.40
2023-04-30T15:28:00.805Z,6.00
2023-04-30T15:30:28.790Z,5.20
2023-04-30T15:32:57.007Z,3.50
2023-04-30T15:35:26.593Z,3.90
2023-04-30T15:37:54.775Z,6.50
2023-04-30T15:40:23.611Z,3.80
2023-04-30T15:42:51.702Z,4.60
2023-04-30T15:45:20.808Z,3.80
2023-04-30T15:47:48.891Z,3.70
2023-04-30T15:50:17.123Z,6.00
2023-04-30T15:52:45.058Z,6.70
2023-04-30T15:55:13.280Z,5.20
2023-04-30T15:57:41.246Z,5.40
2023-04-30T16:00:10.944Z,4.00
2023-04-30T16:02:41.864Z,3.20
2023-04-30T16:05:10.269Z,3.80
2023-04-30T16:07:38.532Z,5.60
2023-04-30T16:10:07.149Z,3.60
2023-04-30T16:12:36.329Z,4.80
2023-04-30T16:15:06.132Z,4.00
2023-04-30T16:17:34.143Z,5.20
2023-04-30T16:20:02.272Z,4.80
2023-04-30T16:22:30.358Z,3.90
2023-04-30T16:24:58.699Z,7.30
2023-04-30T16:27:26.614Z,4.80
2023-04-30T16:29:55.351Z,5.20
2023-04-30T16:32:23.657Z,6.40
2023-04-30T16:34:52.352Z,5.90
2023-04-30T16:37:20.377Z,4.50
2023-04-30T16:39:48.305Z,6.30
2023-04-30T16:42:16.237Z,8.70
2023-04-30T16:44:44.186Z,7.20
2023-04-30T16:47:12.224Z,6.70
2023-04-30T16:49:40.738Z,6.40
2023-04-30T16:52:08.746Z,5.20
2023-04-30T16:54:36.821Z,9.60
2023-04-30T16:57:05.693Z,5.00
2023-04-30T16:59:33.684Z,4.40
2023-04-30T17:02:02.072Z,3.50
2023-04-30T17:04:30.144Z,5.10
2023-04-30T17:06:59.226Z,3.90
2023-04-30T17:09:27.295Z,4.10
2023-04-30T17:11:55.539Z,5.50
2023-04-30T17:14:24.147Z,4.50
2023-04-30T17:16:52.142Z,3.30
2023-04-30T17:19:20.126Z,4.90
2023-04-30T17:21:48.064Z,3.80
2023-04-30T17:24:16.138Z,3.40
2023-04-30T17:26:44.094Z,2.60
2023-04-30T17:29:12.880Z,4.20
2023-04-30T17:31:40.898Z,8.50
2023-04-30T17:34:08.951Z,2.90
2023-04-30T17:36:37.147Z,4.30
2023-04-30T17:39:05.881Z,5.60
2023-04-30T17:41:34.225Z,2.70
2023-04-30T17:44:02.189Z,4.50
2023-04-30T17:46:30.261Z,2.60
2023-04-30T17:49:01.674Z,2.80
2023-04-30T17:51:31.566Z,4.70
2023-04-30T17:53:59.862Z,5.70
2023-04-30T17:56:31.471Z,6.30
2023-04-30T17:59:00.166Z,3.60
2023-04-30T18:01:28.249Z,4.30
2023-04-30T18:03:56.290Z,3.50
2023-04-30T18:06:24.616Z,5.40
2023-04-30T18:08:53.920Z,4.90
2023-04-30T18:11:21.964Z,4.50
2023-04-30T18:13:49.969Z,6.30
2023-04-30T18:16:17.957Z,4.60
2023-04-30T18:18:46.527Z,8.60
2023-04-30T18:21:14.858Z,8.60
2023-04-30T18:23:42.821Z,5.80
2023-04-30T18:26:10.774Z,9.00
2023-04-30T18:28:38.781Z,4.30
2023-04-30T18:31:06.743Z,4.20
2023-04-30T18:33:34.923Z,7.10
2023-04-30T18:36:06.047Z,5.10
2023-04-30T18:38:34.705Z,4.30
2023-04-30T18:41:02.720Z,7.50
2023-04-30T18:43:30.903Z,4.90
2023-04-30T18:46:00.884Z,5.20
2023-04-30T18:48:28.810Z,5.80
2023-04-30T18:50:57.927Z,4.80
2023-04-30T18:53:26.145Z,9.00
2023-04-30T18:55:56.206Z,5.50
2023-04-30T18:58:24.297Z,3.40
2023-04-30T19:00:52.768Z,3.00
2023-04-30T19:03:20.912Z,3.80
2023-04-30T19:05:54.465Z,3.60
2023-04-30T19:08:22.540Z,3.00
2023-04-30T19:10:52.434Z,5.70
2023-04-30T19:13:20.438Z,4.40
2023-04-30T19:15:48.947Z,2.90
2023-04-30T19:18:17.844Z,6.50
2023-04-30T19:21:00.465Z,3.70
2023-04-30T19:23:30.788Z,7.30
2023-04-30T19:25:59.773Z,3.90
2023-04-30T19:28:28.446Z,4.50
2023-04-30T19:30:56.557Z,5.10
2023-04-30T19:33:25.613Z,6.70
2023-04-30T19:35:54.803Z,5.00
2023-04-30T19:38:23.841Z,6.00
2023-04-30T19:40:54.299Z,3.30
2023-04-30T19:43:23.422Z,4.80
2023-04-30T19:45:56.938Z,3.10
2023-04-30T19:48:26.872Z,5.40
2023-04-30T19:50:55.297Z,4.60
2023-04-30T19:53:26.308Z,5.60
2023-04-30T19:55:54.332Z,3.70
2023-04-30T19:58:22.287Z,5.40
2023-04-30T20:00:53.641Z,5.90
2023-04-30T20:03:22.743Z,5.20
2023-04-30T20:05:50.890Z,4.90
2023-04-30T20:08:18.991Z,5.50
2023-04-30T20:10:48.027Z,3.50
2023-04-30T20:13:17.339Z,5.20
2023-04-30T20:15:45.487Z,8.40
2023-04-30T20:18:13.606Z,5.50
2023-04-30T20:20:52.544Z,6.10
2023-04-30T20:23:20.718Z,7.80
2023-04-30T20:25:50.151Z,6.80
2023-04-30T20:28:18.425Z,5.70
2023-04-30T20:30:48.087Z,7.70
2023-04-30T20:33:16.464Z,5.20
2023-04-30T20:35:48.949Z,5.00
2023-04-30T20:38:19.951Z,6.30
2023-04-30T20:40:48.620Z,4.50
2023-04-30T20:43:18.146Z,7.90
2023-04-30T20:45:46.563Z,6.20
2023-04-30T20:48:14.589Z,4.90
2023-04-30T20:50:42.699Z,4.10
2023-04-30T20:53:11.854Z,8.40
2023-04-30T20:55:39.841Z,7.40
2023-04-30T20:58:09.216Z,7.30
2023-04-30T21:00:37.307Z,8.40
2023-04-30T21:03:06.073Z,6.60
2023-04-30T21:05:34.430Z,8.30
2023-04-30T21:08:02.484Z,7.80
2023-04-30T21:10:36.189Z,10.30
2023-04-30T21:13:05.964Z,7.20
2023-04-30T21:15:36.377Z,5.30
2023-04-30T21:18:05.061Z,7.90
2023-04-30T21:20:36.325Z,7.70
2023-04-30T21:23:04.366Z,8.80
2023-04-30T21:25:32.485Z,4.60
2023-04-30T21:28:03.096Z,7.70
2023-04-30T21:30:31.524Z,6.00
2023-04-30T21:32:59.556Z,6.20
2023-04-30T21:35:30.445Z,6.40
2023-04-30T21:37:58.517Z,7.90
2023-04-30T21:40:26.608Z,6.90
2023-04-30T21:42:54.801Z,9.70
2023-04-30T21:45:22.940Z,5.60
2023-04-30T21:47:51.121Z,5.80
2023-04-30T21:50:19.158Z,5.90
2023-04-30T21:52:47.075Z,5.30
2023-04-30T21:55:15.058Z,7.20
2023-04-30T21:57:43.109Z,7.20
2023-04-30T22:00:14.461Z,8.50
2023-04-30T22:02:49.745Z,8.80
2023-04-30T22:05:19.645Z,12.00
2023-04-30T22:07:48.127Z,14.20
2023-04-30T22:10:16.209Z,11.40
2023-04-30T22:12:47.344Z,13.10
2023-04-30T22:15:15.790Z,6.50
2023-04-30T22:17:43.843Z,9.50
2023-04-30T22:20:12.241Z,14.70
2023-04-30T22:22:40.221Z,8.70
2023-04-30T22:25:10.095Z,7.70
2023-04-30T22:27:38.244Z,9.70
2023-04-30T22:30:07.196Z,18.40
2023-04-30T22:32:35.239Z,13.30
2023-04-30T22:35:03.604Z,10.10
2023-04-30T22:37:31.628Z,7.20
2023-04-30T22:39:59.623Z,8.50
2023-04-30T22:42:28.820Z,8.60
2023-04-30T22:44:57.577Z,9.60
2023-04-30T22:47:27.465Z,8.00
2023-04-30T22:49:57.708Z,8.60
2023-04-30T22:52:26.814Z,5.30
2023-04-30T22:54:55.646Z,5.70
2023-04-30T22:57:23.914Z,10.70
2023-04-30T22:59:54.188Z,10.10
2023-04-30T23:02:22.956Z,8.20
2023-04-30T23:04:51.594Z,8.10
2023-04-30T23:07:19.606Z,5.70
2023-04-30T23:09:47.612Z,7.90
2023-04-30T23:12:16.135Z,6.30
2023-04-30T23:14:44.064Z,5.30
2023-04-30T23:17:11.985Z,4.10
2023-04-30T23:19:39.999Z,5.10
2023-04-30T23:22:07.966Z,5.00
2023-04-30T23:24:37.580Z,7.40
2023-04-30T23:27:05.683Z,4.50
2023-04-30T23:29:34.988Z,7.20
2023-04-30T23:32:04.645Z,9.10
2023-04-30T23:34:32.741Z,10.60
2023-04-30T23:37:01.023Z,5.80
2023-04-30T23:39:29.208Z,7.40
2023-04-30T23:41:57.499Z,5.00
2023-04-30T23:44:25.512Z,9.70
2023-04-30T23:46:53.976Z,10.10
2023-04-30T23:49:24.642Z,7.30
